sensor_id;sensor_type;location;lat;lon;timestamp;P1;durP1;ratioP1;P2;durP2;ratioP2
45007;SDS011;30743;52.008;5.644;2023-02-28T00:00:06;7.15;;;3.33;;
45007;SDS011;30743;52.008;5.644;2023-02-28T00:02:39;6.65;;;3.47;;
45007;SDS011;30743;52.008;5.644;2023-02-28T00:05:06;6.15;;;2.78;;
45007;SDS011;30743;52.008;5.644;2023-02-28T00:07:33;6.90;;;2.10;;
45007;SDS011;30743;52.008;5.644;2023-02-28T00:09:59;4.32;;;2.50;;
45007;SDS011;30743;52.008;5.644;2023-02-28T00:12:25;3.58;;;2.20;;
45007;SDS011;30743;52.008;5.644;2023-02-28T00:14:51;5.72;;;2.20;;
45007;SDS011;30743;52.008;5.644;2023-02-28T00:17:17;3.33;;;2.40;;
45007;SDS011;30743;52.008;5.644;2023-02-28T00:19:46;3.90;;;2.60;;
45007;SDS011;30743;52.008;5.644;2023-02-28T00:22:20;4.53;;;2.53;;
45007;SDS011;30743;52.008;5.644;2023-02-28T00:24:47;8.48;;;2.78;;
45007;SDS011;30743;52.008;5.644;2023-02-28T00:27:12;7.65;;;3.00;;
45007;SDS011;30743;52.008;5.644;2023-02-28T00:29:39;5.18;;;2.63;;
45007;SDS011;30743;52.008;5.644;2023-02-28T00:32:05;5.93;;;2.85;;
45007;SDS011;30743;52.008;5.644;2023-02-28T00:34:31;5.28;;;2.83;;
45007;SDS011;30743;52.008;5.644;2023-02-28T00:37:02;9.05;;;2.65;;
45007;SDS011;30743;52.008;5.644;2023-02-28T00:42:01;5.80;;;2.50;;
45007;SDS011;30743;52.008;5.644;2023-02-28T00:44:27;5.00;;;2.70;;
45007;SDS011;30743;52.008;5.644;2023-02-28T00:46:53;4.70;;;2.20;;
45007;SDS011;30743;52.008;5.644;2023-02-28T00:49:19;4.72;;;2.60;;
45007;SDS011;30743;52.008;5.644;2023-02-28T00:51:45;4.60;;;2.55;;
45007;SDS011;30743;52.008;5.644;2023-02-28T00:54:11;4.25;;;2.60;;
45007;SDS011;30743;52.008;5.644;2023-02-28T00:56:36;6.10;;;3.20;;
45007;SDS011;30743;52.008;5.644;2023-02-28T00:59:02;4.93;;;2.60;;
45007;SDS011;30743;52.008;5.644;2023-02-28T01:01:27;5.50;;;2.58;;
45007;SDS011;30743;52.008;5.644;2023-02-28T01:03:53;4.68;;;2.78;;
45007;SDS011;30743;52.008;5.644;2023-02-28T01:06:18;6.13;;;3.53;;
45007;SDS011;30743;52.008;5.644;2023-02-28T01:08:44;5.70;;;2.75;;
45007;SDS011;30743;52.008;5.644;2023-02-28T01:11:10;5.18;;;2.67;;
45007;SDS011;30743;52.008;5.644;2023-02-28T01:13:37;6.65;;;2.70;;
45007;SDS011;30743;52.008;5.644;2023-02-28T01:16:03;10.27;;;2.88;;
45007;SDS011;30743;52.008;5.644;2023-02-28T01:18:28;7.70;;;2.85;;
45007;SDS011;30743;52.008;5.644;2023-02-28T01:20:54;3.72;;;2.63;;
45007;SDS011;30743;52.008;5.644;2023-02-28T01:23:20;5.10;;;3.15;;
45007;SDS011;30743;52.008;5.644;2023-02-28T01:25:48;5.63;;;2.97;;
45007;SDS011;30743;52.008;5.644;2023-02-28T01:28:13;5.00;;;2.88;;
45007;SDS011;30743;52.008;5.644;2023-02-28T01:30:39;5.80;;;2.75;;
45007;SDS011;30743;52.008;5.644;2023-02-28T01:33:05;6.28;;;2.50;;
45007;SDS011;30743;52.008;5.644;2023-02-28T01:35:34;5.75;;;2.80;;
45007;SDS011;30743;52.008;5.644;2023-02-28T01:38:00;5.85;;;2.80;;
45007;SDS011;30743;52.008;5.644;2023-02-28T01:40:27;3.28;;;2.33;;
45007;SDS011;30743;52.008;5.644;2023-02-28T01:42:52;4.50;;;2.83;;
45007;SDS011;30743;52.008;5.644;2023-02-28T01:45:25;6.50;;;2.50;;
45007;SDS011;30743;52.008;5.644;2023-02-28T01:48:06;6.07;;;3.38;;
45007;SDS011;30743;52.008;5.644;2023-02-28T01:50:37;5.85;;;3.40;;
45007;SDS011;30743;52.008;5.644;2023-02-28T01:53:06;7.18;;;3.72;;
45007;SDS011;30743;52.008;5.644;2023-02-28T01:55:35;5.78;;;3.22;;
45007;SDS011;30743;52.008;5.644;2023-02-28T01:58:02;5.50;;;3.22;;
45007;SDS011;30743;52.008;5.644;2023-02-28T02:00:30;6.25;;;3.25;;
45007;SDS011;30743;52.008;5.644;2023-02-28T02:02:58;4.60;;;2.70;;
45007;SDS011;30743;52.008;5.644;2023-02-28T02:05:26;4.65;;;2.58;;
45007;SDS011;30743;52.008;5.644;2023-02-28T02:07:56;4.35;;;2.70;;
45007;SDS011;30743;52.008;5.644;2023-02-28T02:10:31;5.05;;;2.58;;
45007;SDS011;30743;52.008;5.644;2023-02-28T02:16:00;4.82;;;2.63;;
45007;SDS011;30743;52.008;5.644;2023-02-28T02:21:29;4.30;;;2.65;;
45007;SDS011;30743;52.008;5.644;2023-02-28T02:26:55;4.82;;;2.53;;
45007;SDS011;30743;52.008;5.644;2023-02-28T02:35:40;4.55;;;2.65;;
45007;SDS011;30743;52.008;5.644;2023-02-28T02:38:19;4.53;;;2.63;;
45007;SDS011;30743;52.008;5.644;2023-02-28T02:41:04;3.85;;;2.55;;
45007;SDS011;30743;52.008;5.644;2023-02-28T02:43:39;6.90;;;2.85;;
45007;SDS011;30743;52.008;5.644;2023-02-28T02:46:15;4.20;;;2.75;;
45007;SDS011;30743;52.008;5.644;2023-02-28T02:48:44;3.60;;;2.42;;
45007;SDS011;30743;52.008;5.644;2023-02-28T02:51:13;4.85;;;2.38;;
45007;SDS011;30743;52.008;5.644;2023-02-28T02:53:44;6.22;;;2.75;;
45007;SDS011;30743;52.008;5.644;2023-02-28T02:56:17;6.43;;;2.75;;
45007;SDS011;30743;52.008;5.644;2023-02-28T02:58:44;6.10;;;2.83;;
45007;SDS011;30743;52.008;5.644;2023-02-28T03:01:15;4.97;;;2.97;;
45007;SDS011;30743;52.008;5.644;2023-02-28T03:03:52;3.00;;;2.08;;
45007;SDS011;30743;52.008;5.644;2023-02-28T03:08:47;5.88;;;2.70;;
45007;SDS011;30743;52.008;5.644;2023-02-28T03:11:13;5.35;;;2.65;;
45007;SDS011;30743;52.008;5.644;2023-02-28T03:24:57;6.00;;;2.92;;
45007;SDS011;30743;52.008;5.644;2023-02-28T03:30:35;4.88;;;2.88;;
45007;SDS011;30743;52.008;5.644;2023-02-28T03:33:10;6.72;;;2.75;;
45007;SDS011;30743;52.008;5.644;2023-02-28T03:35:43;5.95;;;2.60;;
45007;SDS011;30743;52.008;5.644;2023-02-28T03:38:31;5.43;;;2.60;;
45007;SDS011;30743;52.008;5.644;2023-02-28T03:41:13;5.35;;;2.70;;
45007;SDS011;30743;52.008;5.644;2023-02-28T03:43:50;4.07;;;2.40;;
45007;SDS011;30743;52.008;5.644;2023-02-28T03:46:40;8.98;;;5.05;;
45007;SDS011;30743;52.008;5.644;2023-02-28T03:49:15;5.75;;;2.80;;
45007;SDS011;30743;52.008;5.644;2023-02-28T03:51:56;7.82;;;2.53;;
45007;SDS011;30743;52.008;5.644;2023-02-28T03:54:28;5.10;;;2.50;;
45007;SDS011;30743;52.008;5.644;2023-02-28T03:57:09;2.97;;;2.28;;
45007;SDS011;30743;52.008;5.644;2023-02-28T03:59:42;4.05;;;2.30;;
45007;SDS011;30743;52.008;5.644;2023-02-28T04:02:10;4.07;;;2.38;;
45007;SDS011;30743;52.008;5.644;2023-02-28T04:04:36;3.97;;;2.33;;
45007;SDS011;30743;52.008;5.644;2023-02-28T04:07:03;5.85;;;2.70;;
45007;SDS011;30743;52.008;5.644;2023-02-28T04:09:31;3.08;;;1.73;;
45007;SDS011;30743;52.008;5.644;2023-02-28T04:11:56;2.92;;;1.83;;
45007;SDS011;30743;52.008;5.644;2023-02-28T04:14:22;2.20;;;1.60;;
45007;SDS011;30743;52.008;5.644;2023-02-28T04:16:48;2.92;;;1.40;;
45007;SDS011;30743;52.008;5.644;2023-02-28T04:19:15;3.75;;;1.90;;
45007;SDS011;30743;52.008;5.644;2023-02-28T04:21:42;5.60;;;1.67;;
45007;SDS011;30743;52.008;5.644;2023-02-28T04:24:11;3.17;;;1.75;;
45007;SDS011;30743;52.008;5.644;2023-02-28T04:26:42;2.70;;;1.67;;
45007;SDS011;30743;52.008;5.644;2023-02-28T04:29:13;4.22;;;1.60;;
45007;SDS011;30743;52.008;5.644;2023-02-28T04:31:43;4.53;;;1.60;;
45007;SDS011;30743;52.008;5.644;2023-02-28T04:34:08;1.90;;;1.35;;
45007;SDS011;30743;52.008;5.644;2023-02-28T04:36:34;3.08;;;1.58;;
45007;SDS011;30743;52.008;5.644;2023-02-28T04:38:59;3.72;;;1.40;;
45007;SDS011;30743;52.008;5.644;2023-02-28T04:41:26;5.43;;;1.90;;
45007;SDS011;30743;52.008;5.644;2023-02-28T04:43:51;3.40;;;2.03;;
45007;SDS011;30743;52.008;5.644;2023-02-28T04:46:18;2.33;;;1.40;;
45007;SDS011;30743;52.008;5.644;2023-02-28T04:48:44;4.38;;;1.90;;
45007;SDS011;30743;52.008;5.644;2023-02-28T04:51:10;2.88;;;1.70;;
45007;SDS011;30743;52.008;5.644;2023-02-28T04:53:38;4.40;;;1.75;;
45007;SDS011;30743;52.008;5.644;2023-02-28T04:56:05;2.42;;;1.60;;
45007;SDS011;30743;52.008;5.644;2023-02-28T04:58:32;3.70;;;1.30;;
45007;SDS011;30743;52.008;5.644;2023-02-28T05:01:01;3.20;;;1.63;;
45007;SDS011;30743;52.008;5.644;2023-02-28T05:03:28;4.07;;;1.92;;
45007;SDS011;30743;52.008;5.644;2023-02-28T05:05:54;4.13;;;1.77;;
45007;SDS011;30743;52.008;5.644;2023-02-28T05:08:19;4.45;;;1.58;;
45007;SDS011;30743;52.008;5.644;2023-02-28T05:10:45;3.10;;;1.60;;
45007;SDS011;30743;52.008;5.644;2023-02-28T05:13:13;3.28;;;1.55;;
45007;SDS011;30743;52.008;5.644;2023-02-28T05:15:39;3.53;;;1.20;;
45007;SDS011;30743;52.008;5.644;2023-02-28T05:18:04;3.15;;;1.55;;
45007;SDS011;30743;52.008;5.644;2023-02-28T05:20:30;4.18;;;1.60;;
45007;SDS011;30743;52.008;5.644;2023-02-28T05:22:56;1.90;;;1.35;;
45007;SDS011;30743;52.008;5.644;2023-02-28T05:25:23;4.35;;;1.50;;
45007;SDS011;30743;52.008;5.644;2023-02-28T05:27:49;1.95;;;1.20;;
45007;SDS011;30743;52.008;5.644;2023-02-28T05:30:15;3.97;;;1.33;;
45007;SDS011;30743;52.008;5.644;2023-02-28T05:32:41;2.08;;;1.55;;
45007;SDS011;30743;52.008;5.644;2023-02-28T05:35:10;2.15;;;1.30;;
45007;SDS011;30743;52.008;5.644;2023-02-28T05:37:36;3.42;;;1.40;;
45007;SDS011;30743;52.008;5.644;2023-02-28T05:40:03;2.13;;;1.30;;
45007;SDS011;30743;52.008;5.644;2023-02-28T05:42:35;4.57;;;1.65;;
45007;SDS011;30743;52.008;5.644;2023-02-28T05:45:01;3.50;;;1.60;;
45007;SDS011;30743;52.008;5.644;2023-02-28T05:47:26;4.40;;;1.40;;
45007;SDS011;30743;52.008;5.644;2023-02-28T05:49:51;2.13;;;1.58;;
45007;SDS011;30743;52.008;5.644;2023-02-28T05:52:17;2.95;;;2.00;;
45007;SDS011;30743;52.008;5.644;2023-02-28T05:54:42;6.93;;;1.92;;
45007;SDS011;30743;52.008;5.644;2023-02-28T05:57:08;5.30;;;2.33;;
45007;SDS011;30743;52.008;5.644;2023-02-28T05:59:33;4.75;;;1.60;;
45007;SDS011;30743;52.008;5.644;2023-02-28T06:01:59;3.70;;;1.60;;
45007;SDS011;30743;52.008;5.644;2023-02-28T06:04:24;2.45;;;1.63;;
45007;SDS011;30743;52.008;5.644;2023-02-28T06:06:50;5.82;;;1.80;;
45007;SDS011;30743;52.008;5.644;2023-02-28T06:09:16;3.47;;;1.73;;
45007;SDS011;30743;52.008;5.644;2023-02-28T06:11:42;3.38;;;1.65;;
45007;SDS011;30743;52.008;5.644;2023-02-28T06:14:09;3.53;;;1.80;;
45007;SDS011;30743;52.008;5.644;2023-02-28T06:16:40;5.95;;;1.88;;
45007;SDS011;30743;52.008;5.644;2023-02-28T06:19:06;5.65;;;1.63;;
45007;SDS011;30743;52.008;5.644;2023-02-28T06:21:32;2.25;;;1.30;;
45007;SDS011;30743;52.008;5.644;2023-02-28T06:23:58;3.30;;;1.88;;
45007;SDS011;30743;52.008;5.644;2023-02-28T06:26:25;3.10;;;1.50;;
45007;SDS011;30743;52.008;5.644;2023-02-28T06:28:50;2.88;;;1.90;;
45007;SDS011;30743;52.008;5.644;2023-02-28T06:31:17;3.00;;;1.58;;
45007;SDS011;30743;52.008;5.644;2023-02-28T06:33:43;3.50;;;1.75;;
45007;SDS011;30743;52.008;5.644;2023-02-28T06:36:10;3.65;;;1.70;;
45007;SDS011;30743;52.008;5.644;2023-02-28T06:38:37;2.58;;;1.75;;
45007;SDS011;30743;52.008;5.644;2023-02-28T06:41:03;2.75;;;1.98;;
45007;SDS011;30743;52.008;5.644;2023-02-28T06:43:30;2.53;;;1.73;;
45007;SDS011;30743;52.008;5.644;2023-02-28T06:45:59;3.00;;;1.50;;
45007;SDS011;30743;52.008;5.644;2023-02-28T06:48:26;4.40;;;2.00;;
45007;SDS011;30743;52.008;5.644;2023-02-28T06:50:52;4.55;;;1.73;;
45007;SDS011;30743;52.008;5.644;2023-02-28T06:53:26;4.90;;;1.73;;
45007;SDS011;30743;52.008;5.644;2023-02-28T06:55:51;2.40;;;1.80;;
45007;SDS011;30743;52.008;5.644;2023-02-28T06:58:17;3.47;;;1.70;;
45007;SDS011;30743;52.008;5.644;2023-02-28T07:00:44;6.32;;;2.03;;
45007;SDS011;30743;52.008;5.644;2023-02-28T07:03:10;3.20;;;1.98;;
45007;SDS011;30743;52.008;5.644;2023-02-28T07:05:37;4.25;;;1.90;;
45007;SDS011;30743;52.008;5.644;2023-02-28T07:08:03;3.42;;;2.40;;
45007;SDS011;30743;52.008;5.644;2023-02-28T07:10:30;5.80;;;2.00;;
45007;SDS011;30743;52.008;5.644;2023-02-28T07:12:57;3.28;;;1.73;;
45007;SDS011;30743;52.008;5.644;2023-02-28T07:15:24;3.35;;;1.80;;
45007;SDS011;30743;52.008;5.644;2023-02-28T07:17:49;2.35;;;1.60;;
45007;SDS011;30743;52.008;5.644;2023-02-28T07:20:15;3.33;;;1.30;;
45007;SDS011;30743;52.008;5.644;2023-02-28T07:22:41;3.83;;;1.50;;
45007;SDS011;30743;52.008;5.644;2023-02-28T07:25:07;2.42;;;1.45;;
45007;SDS011;30743;52.008;5.644;2023-02-28T07:27:33;1.83;;;1.35;;
45007;SDS011;30743;52.008;5.644;2023-02-28T07:29:59;3.35;;;1.50;;
45007;SDS011;30743;52.008;5.644;2023-02-28T07:32:26;3.50;;;1.70;;
45007;SDS011;30743;52.008;5.644;2023-02-28T07:34:52;1.95;;;1.30;;
45007;SDS011;30743;52.008;5.644;2023-02-28T07:37:18;2.95;;;1.65;;
45007;SDS011;30743;52.008;5.644;2023-02-28T07:39:43;4.68;;;1.60;;
45007;SDS011;30743;52.008;5.644;2023-02-28T07:42:09;1.60;;;1.20;;
45007;SDS011;30743;52.008;5.644;2023-02-28T07:44:37;5.55;;;2.53;;
45007;SDS011;30743;52.008;5.644;2023-02-28T07:47:05;2.25;;;1.52;;
45007;SDS011;30743;52.008;5.644;2023-02-28T07:49:35;2.30;;;1.30;;
45007;SDS011;30743;52.008;5.644;2023-02-28T07:52:01;4.15;;;1.58;;
45007;SDS011;30743;52.008;5.644;2023-02-28T07:54:28;2.13;;;1.30;;
45007;SDS011;30743;52.008;5.644;2023-02-28T07:56:54;3.38;;;1.50;;
45007;SDS011;30743;52.008;5.644;2023-02-28T07:59:20;2.28;;;1.40;;
45007;SDS011;30743;52.008;5.644;2023-02-28T08:01:45;4.65;;;1.50;;
45007;SDS011;30743;52.008;5.644;2023-02-28T08:04:11;2.45;;;1.52;;
45007;SDS011;30743;52.008;5.644;2023-02-28T08:06:36;2.75;;;1.58;;
45007;SDS011;30743;52.008;5.644;2023-02-28T08:09:02;4.32;;;1.33;;
45007;SDS011;30743;52.008;5.644;2023-02-28T08:11:27;2.38;;;1.30;;
45007;SDS011;30743;52.008;5.644;2023-02-28T08:13:54;2.25;;;1.40;;
45007;SDS011;30743;52.008;5.644;2023-02-28T08:16:19;3.47;;;1.38;;
45007;SDS011;30743;52.008;5.644;2023-02-28T08:18:47;2.95;;;1.25;;
45007;SDS011;30743;52.008;5.644;2023-02-28T08:21:14;2.70;;;1.45;;
45007;SDS011;30743;52.008;5.644;2023-02-28T08:23:39;2.38;;;1.00;;
45007;SDS011;30743;52.008;5.644;2023-02-28T08:26:05;2.55;;;1.10;;
45007;SDS011;30743;52.008;5.644;2023-02-28T08:28:31;2.55;;;1.10;;
45007;SDS011;30743;52.008;5.644;2023-02-28T08:30:57;2.38;;;1.02;;
45007;SDS011;30743;52.008;5.644;2023-02-28T08:33:23;1.95;;;1.08;;
45007;SDS011;30743;52.008;5.644;2023-02-28T08:35:52;2.08;;;0.90;;
45007;SDS011;30743;52.008;5.644;2023-02-28T08:38:21;2.22;;;0.93;;
45007;SDS011;30743;52.008;5.644;2023-02-28T08:40:47;0.95;;;0.63;;
45007;SDS011;30743;52.008;5.644;2023-02-28T08:43:12;2.78;;;0.90;;
45007;SDS011;30743;52.008;5.644;2023-02-28T08:45:38;0.98;;;0.70;;
45007;SDS011;30743;52.008;5.644;2023-02-28T08:48:04;1.08;;;0.80;;
45007;SDS011;30743;52.008;5.644;2023-02-28T08:50:29;1.60;;;0.75;;
45007;SDS011;30743;52.008;5.644;2023-02-28T08:52:55;1.17;;;0.70;;
45007;SDS011;30743;52.008;5.644;2023-02-28T08:55:20;1.70;;;1.08;;
45007;SDS011;30743;52.008;5.644;2023-02-28T08:57:46;1.17;;;0.57;;
45007;SDS011;30743;52.008;5.644;2023-02-28T09:00:11;1.13;;;0.90;;
45007;SDS011;30743;52.008;5.644;2023-02-28T09:02:38;2.03;;;0.88;;
45007;SDS011;30743;52.008;5.644;2023-02-28T09:05:05;1.85;;;0.93;;
45007;SDS011;30743;52.008;5.644;2023-02-28T09:07:31;1.55;;;0.95;;
45007;SDS011;30743;52.008;5.644;2023-02-28T09:09:56;1.05;;;0.90;;
45007;SDS011;30743;52.008;5.644;2023-02-28T09:12:26;1.67;;;0.77;;
45007;SDS011;30743;52.008;5.644;2023-02-28T09:14:52;1.67;;;0.93;;
45007;SDS011;30743;52.008;5.644;2023-02-28T09:17:18;1.65;;;0.73;;
45007;SDS011;30743;52.008;5.644;2023-02-28T09:19:46;2.20;;;1.08;;
45007;SDS011;30743;52.008;5.644;2023-02-28T09:22:13;1.40;;;0.70;;
45007;SDS011;30743;52.008;5.644;2023-02-28T09:24:38;1.88;;;0.90;;
45007;SDS011;30743;52.008;5.644;2023-02-28T09:27:04;1.95;;;0.80;;
45007;SDS011;30743;52.008;5.644;2023-02-28T09:29:30;1.25;;;0.75;;
45007;SDS011;30743;52.008;5.644;2023-02-28T09:31:57;1.13;;;0.70;;
45007;SDS011;30743;52.008;5.644;2023-02-28T09:34:25;1.60;;;0.73;;
45007;SDS011;30743;52.008;5.644;2023-02-28T09:36:52;1.65;;;0.70;;
45007;SDS011;30743;52.008;5.644;2023-02-28T09:39:19;0.80;;;0.60;;
45007;SDS011;30743;52.008;5.644;2023-02-28T09:41:47;1.38;;;0.70;;
45007;SDS011;30743;52.008;5.644;2023-02-28T09:46:55;1.50;;;0.80;;
45007;SDS011;30743;52.008;5.644;2023-02-28T09:49:25;1.48;;;0.52;;
45007;SDS011;30743;52.008;5.644;2023-02-28T09:52:04;1.65;;;0.70;;
45007;SDS011;30743;52.008;5.644;2023-02-28T09:54:34;1.40;;;0.70;;
45007;SDS011;30743;52.008;5.644;2023-02-28T09:57:05;1.20;;;0.70;;
45007;SDS011;30743;52.008;5.644;2023-02-28T09:59:48;1.35;;;0.90;;
45007;SDS011;30743;52.008;5.644;2023-02-28T10:05:21;11.88;;;1.05;;
45007;SDS011;30743;52.008;5.644;2023-02-28T10:10:43;1.25;;;0.75;;
45007;SDS011;30743;52.008;5.644;2023-02-28T10:15:55;3.55;;;0.50;;
45007;SDS011;30743;52.008;5.644;2023-02-28T10:18:30;0.50;;;0.50;;
45007;SDS011;30743;52.008;5.644;2023-02-28T10:21:21;0.82;;;0.60;;
45007;SDS011;30743;52.008;5.644;2023-02-28T10:23:53;0.80;;;0.60;;
45007;SDS011;30743;52.008;5.644;2023-02-28T10:26:36;1.63;;;0.60;;
45007;SDS011;30743;52.008;5.644;2023-02-28T10:29:01;1.13;;;0.70;;
45007;SDS011;30743;52.008;5.644;2023-02-28T10:31:28;1.17;;;0.52;;
45007;SDS011;30743;52.008;5.644;2023-02-28T10:33:54;2.15;;;0.60;;
45007;SDS011;30743;52.008;5.644;2023-02-28T10:36:20;1.42;;;0.75;;
45007;SDS011;30743;52.008;5.644;2023-02-28T10:38:46;1.00;;;0.60;;
45007;SDS011;30743;52.008;5.644;2023-02-28T10:41:14;0.52;;;0.50;;
45007;SDS011;30743;52.008;5.644;2023-02-28T10:43:51;0.57;;;0.50;;
45007;SDS011;30743;52.008;5.644;2023-02-28T10:46:18;1.55;;;0.75;;
45007;SDS011;30743;52.008;5.644;2023-02-28T10:49:01;2.53;;;1.00;;
45007;SDS011;30743;52.008;5.644;2023-02-28T10:51:36;0.95;;;0.60;;
45007;SDS011;30743;52.008;5.644;2023-02-28T10:54:03;0.70;;;0.60;;
45007;SDS011;30743;52.008;5.644;2023-02-28T10:56:30;0.75;;;0.50;;
45007;SDS011;30743;52.008;5.644;2023-02-28T11:01:48;1.25;;;0.68;;
45007;SDS011;30743;52.008;5.644;2023-02-28T11:04:34;1.52;;;0.70;;
45007;SDS011;30743;52.008;5.644;2023-02-28T11:07:03;1.35;;;0.70;;
45007;SDS011;30743;52.008;5.644;2023-02-28T11:09:48;2.05;;;0.70;;
45007;SDS011;30743;52.008;5.644;2023-02-28T11:12:57;1.30;;;0.65;;
45007;SDS011;30743;52.008;5.644;2023-02-28T11:18:20;0.80;;;0.60;;
45007;SDS011;30743;52.008;5.644;2023-02-28T11:20:51;1.23;;;0.80;;
45007;SDS011;30743;52.008;5.644;2023-02-28T11:23:19;0.88;;;0.60;;
45007;SDS011;30743;52.008;5.644;2023-02-28T11:25:49;1.85;;;0.75;;
45007;SDS011;30743;52.008;5.644;2023-02-28T11:28:34;1.13;;;0.75;;
45007;SDS011;30743;52.008;5.644;2023-02-28T11:33:31;1.63;;;0.80;;
45007;SDS011;30743;52.008;5.644;2023-02-28T11:36:09;1.38;;;0.77;;
45007;SDS011;30743;52.008;5.644;2023-02-28T11:38:37;1.80;;;0.82;;
45007;SDS011;30743;52.008;5.644;2023-02-28T11:41:13;1.23;;;0.70;;
45007;SDS011;30743;52.008;5.644;2023-02-28T11:44:01;2.17;;;0.68;;
45007;SDS011;30743;52.008;5.644;2023-02-28T11:46:44;1.75;;;0.60;;
45007;SDS011;30743;52.008;5.644;2023-02-28T11:52:20;0.88;;;0.60;;
45007;SDS011;30743;52.008;5.644;2023-02-28T11:57:51;0.75;;;0.60;;
45007;SDS011;30743;52.008;5.644;2023-02-28T12:00:38;1.00;;;0.68;;
45007;SDS011;30743;52.008;5.644;2023-02-28T12:06:28;1.27;;;0.60;;
45007;SDS011;30743;52.008;5.644;2023-02-28T12:09:29;1.52;;;0.80;;
45007;SDS011;30743;52.008;5.644;2023-02-28T12:12:23;1.58;;;0.80;;
45007;SDS011;30743;52.008;5.644;2023-02-28T12:28:06;1.10;;;0.50;;
45007;SDS011;30743;52.008;5.644;2023-02-28T12:30:39;0.98;;;0.70;;
45007;SDS011;30743;52.008;5.644;2023-02-28T12:33:14;1.17;;;0.73;;
45007;SDS011;30743;52.008;5.644;2023-02-28T12:35:47;2.05;;;0.98;;
45007;SDS011;30743;52.008;5.644;2023-02-28T12:41:13;1.83;;;0.88;;
45007;SDS011;30743;52.008;5.644;2023-02-28T12:43:46;1.27;;;0.90;;
45007;SDS011;30743;52.008;5.644;2023-02-28T12:46:36;1.15;;;0.75;;
45007;SDS011;30743;52.008;5.644;2023-02-28T12:49:08;1.17;;;0.77;;
45007;SDS011;30743;52.008;5.644;2023-02-28T12:51:42;0.82;;;0.70;;
45007;SDS011;30743;52.008;5.644;2023-02-28T12:54:14;1.17;;;0.70;;
45007;SDS011;30743;52.008;5.644;2023-02-28T12:56:58;0.80;;;0.70;;
45007;SDS011;30743;52.008;5.644;2023-02-28T13:05:10;2.25;;;0.75;;
45007;SDS011;30743;52.008;5.644;2023-02-28T13:11:07;1.08;;;0.80;;
45007;SDS011;30743;52.008;5.644;2023-02-28T13:13:32;1.42;;;0.80;;
45007;SDS011;30743;52.008;5.644;2023-02-28T13:18:36;1.00;;;0.90;;
45007;SDS011;30743;52.008;5.644;2023-02-28T13:21:04;1.45;;;1.08;;
45007;SDS011;30743;52.008;5.644;2023-02-28T13:26:12;1.10;;;0.90;;
45007;SDS011;30743;52.008;5.644;2023-02-28T13:28:57;1.33;;;1.02;;
45007;SDS011;30743;52.008;5.644;2023-02-28T13:31:24;1.42;;;1.00;;
45007;SDS011;30743;52.008;5.644;2023-02-28T13:46:31;1.63;;;1.00;;
45007;SDS011;30743;52.008;5.644;2023-02-28T13:51:44;1.40;;;0.98;;
45007;SDS011;30743;52.008;5.644;2023-02-28T13:57:20;1.10;;;0.90;;
45007;SDS011;30743;52.008;5.644;2023-02-28T14:02:53;1.45;;;0.95;;
45007;SDS011;30743;52.008;5.644;2023-02-28T14:05:24;1.33;;;0.88;;
45007;SDS011;30743;52.008;5.644;2023-02-28T14:07:58;1.02;;;0.80;;
45007;SDS011;30743;52.008;5.644;2023-02-28T14:10:30;1.55;;;1.10;;
45007;SDS011;30743;52.008;5.644;2023-02-28T14:12:58;1.08;;;0.88;;
45007;SDS011;30743;52.008;5.644;2023-02-28T14:18:20;1.80;;;0.88;;
45007;SDS011;30743;52.008;5.644;2023-02-28T14:20:48;1.05;;;0.90;;
45007;SDS011;30743;52.008;5.644;2023-02-28T14:26:07;1.38;;;0.98;;
45007;SDS011;30743;52.008;5.644;2023-02-28T14:29:00;2.15;;;0.93;;
45007;SDS011;30743;52.008;5.644;2023-02-28T14:31:37;1.00;;;0.73;;
45007;SDS011;30743;52.008;5.644;2023-02-28T14:37:05;1.13;;;0.82;;
45007;SDS011;30743;52.008;5.644;2023-02-28T14:39:40;1.00;;;0.90;;
45007;SDS011;30743;52.008;5.644;2023-02-28T14:42:24;1.73;;;1.00;;
45007;SDS011;30743;52.008;5.644;2023-02-28T14:44:55;1.65;;;1.08;;
45007;SDS011;30743;52.008;5.644;2023-02-28T14:47:21;2.30;;;1.10;;
45007;SDS011;30743;52.008;5.644;2023-02-28T14:49:50;1.30;;;1.00;;
45007;SDS011;30743;52.008;5.644;2023-02-28T14:52:23;1.30;;;0.82;;
45007;SDS011;30743;52.008;5.644;2023-02-28T14:54:52;1.48;;;0.82;;
45007;SDS011;30743;52.008;5.644;2023-02-28T14:57:21;1.98;;;1.00;;
45007;SDS011;30743;52.008;5.644;2023-02-28T15:00:25;1.63;;;1.10;;
45007;SDS011;30743;52.008;5.644;2023-02-28T15:02:50;1.17;;;0.93;;
45007;SDS011;30743;52.008;5.644;2023-02-28T15:05:20;3.40;;;1.08;;
45007;SDS011;30743;52.008;5.644;2023-02-28T15:08:05;1.38;;;0.90;;
45007;SDS011;30743;52.008;5.644;2023-02-28T15:10:35;0.90;;;0.70;;
45007;SDS011;30743;52.008;5.644;2023-02-28T15:13:05;1.40;;;0.98;;
45007;SDS011;30743;52.008;5.644;2023-02-28T15:15:45;1.55;;;0.90;;
45007;SDS011;30743;52.008;5.644;2023-02-28T15:20:46;1.48;;;1.02;;
45007;SDS011;30743;52.008;5.644;2023-02-28T15:23:12;1.38;;;0.88;;
45007;SDS011;30743;52.008;5.644;2023-02-28T15:25:40;2.05;;;1.00;;
45007;SDS011;30743;52.008;5.644;2023-02-28T15:28:09;1.38;;;0.80;;
45007;SDS011;30743;52.008;5.644;2023-02-28T15:30:39;1.48;;;1.00;;
45007;SDS011;30743;52.008;5.644;2023-02-28T15:33:18;1.27;;;1.00;;
45007;SDS011;30743;52.008;5.644;2023-02-28T15:35:48;1.98;;;1.10;;
45007;SDS011;30743;52.008;5.644;2023-02-28T15:40:46;1.40;;;1.08;;
45007;SDS011;30743;52.008;5.644;2023-02-28T15:43:25;1.77;;;1.05;;
45007;SDS011;30743;52.008;5.644;2023-02-28T15:46:00;1.25;;;0.90;;
45007;SDS011;30743;52.008;5.644;2023-02-28T15:48:29;1.33;;;0.98;;
45007;SDS011;30743;52.008;5.644;2023-02-28T15:53:59;2.58;;;1.13;;
45007;SDS011;30743;52.008;5.644;2023-02-28T15:56:27;2.03;;;1.30;;
45007;SDS011;30743;52.008;5.644;2023-02-28T15:59:02;2.05;;;1.10;;
45007;SDS011;30743;52.008;5.644;2023-02-28T16:01:32;3.17;;;1.10;;
45007;SDS011;30743;52.008;5.644;2023-02-28T16:04:00;1.60;;;1.00;;
45007;SDS011;30743;52.008;5.644;2023-02-28T16:09:08;3.30;;;0.90;;
45007;SDS011;30743;52.008;5.644;2023-02-28T16:14:03;1.75;;;1.10;;
45007;SDS011;30743;52.008;5.644;2023-02-28T16:16:30;1.23;;;0.90;;
45007;SDS011;30743;52.008;5.644;2023-02-28T16:18:57;2.28;;;1.00;;
45007;SDS011;30743;52.008;5.644;2023-02-28T16:21:23;2.05;;;0.95;;
45007;SDS011;30743;52.008;5.644;2023-02-28T16:23:50;2.17;;;1.02;;
45007;SDS011;30743;52.008;5.644;2023-02-28T16:26:19;1.85;;;1.08;;
45007;SDS011;30743;52.008;5.644;2023-02-28T16:28:47;1.80;;;1.00;;
45007;SDS011;30743;52.008;5.644;2023-02-28T16:31:14;4.10;;;1.20;;
45007;SDS011;30743;52.008;5.644;2023-02-28T16:33:41;1.42;;;1.15;;
45007;SDS011;30743;52.008;5.644;2023-02-28T16:36:19;1.73;;;1.00;;
45007;SDS011;30743;52.008;5.644;2023-02-28T16:38:49;2.90;;;1.20;;
45007;SDS011;30743;52.008;5.644;2023-02-28T16:41:19;3.28;;;1.23;;
45007;SDS011;30743;52.008;5.644;2023-02-28T16:43:47;2.45;;;1.20;;
45007;SDS011;30743;52.008;5.644;2023-02-28T16:46:15;1.75;;;1.20;;
45007;SDS011;30743;52.008;5.644;2023-02-28T16:48:41;3.15;;;1.50;;
45007;SDS011;30743;52.008;5.644;2023-02-28T16:51:11;2.35;;;1.38;;
45007;SDS011;30743;52.008;5.644;2023-02-28T16:53:40;1.85;;;1.30;;
45007;SDS011;30743;52.008;5.644;2023-02-28T16:56:10;1.45;;;1.20;;
45007;SDS011;30743;52.008;5.644;2023-02-28T16:58:41;2.03;;;1.17;;
45007;SDS011;30743;52.008;5.644;2023-02-28T17:01:07;1.92;;;1.35;;
45007;SDS011;30743;52.008;5.644;2023-02-28T17:03:32;2.47;;;1.60;;
45007;SDS011;30743;52.008;5.644;2023-02-28T17:05:58;2.70;;;1.40;;
45007;SDS011;30743;52.008;5.644;2023-02-28T17:08:24;2.10;;;1.30;;
45007;SDS011;30743;52.008;5.644;2023-02-28T17:10:49;1.30;;;1.17;;
45007;SDS011;30743;52.008;5.644;2023-02-28T17:13:15;2.22;;;1.25;;
45007;SDS011;30743;52.008;5.644;2023-02-28T17:15:40;2.63;;;1.55;;
45007;SDS011;30743;52.008;5.644;2023-02-28T17:18:06;2.35;;;1.52;;